Check out our new PWSWeather beta!
PWSweather.com
Personal Weather Stations
Station Observations
KNCGREEN1000
Bell Orchard Drive, Greensboro, NC 27455

Bell Orchard DriveGreensboro, NC 27455

Lat: 36.132, Lon: -79.8

Elevation: 876

Station Type: Acurite Atlas

Http://www.gilhutcheson.com

High Low Average
Temperature 49.7°F9.8°C 31.9°F-0.1°C 40.4°F4.7°C
Dew Point 32.6°F0.3°C 26.5°F-3.1°C 29.5°F-1.4°C
Winds 10.0 mph 16.1 kmh Calm Calm 2.0 mph SSW3.2 kmh SSW
Wind Gusts -- -- --
Humidity 82% 50% 66%
Pressure 29.92 in1013.2 mb 29.77 in1008.1 mb -
Precipitation 0.00 in0.0 mm - -
Hour Temp Dew Point Humidity Winds Wind Gusts Pressure Precip Precip Rate Daily Precip Total
12:04 AM 39.3°F4.1°C 28.5°F-1.9°C 65% 6.0 mph NW9.7 kmh NW -- 29.88 in1011.9 mb 0.00 in0.0 mm 0.00 in0.0 mm 0.00 in0.0 mm
12:09 AM 39.3°F4.1°C 28.5°F-1.9°C 65% 8.0 mph NW12.9 kmh NW -- 29.88 in1011.9 mb 0.00 in0.0 mm 0.00 in0.0 mm 0.00 in0.0 mm
12:14 AM 39.2°F4.0°C 28.3°F-2.1°C 65% 7.0 mph WSW11.3 kmh WSW -- 29.88 in1011.9 mb 0.00 in0.0 mm 0.00 in0.0 mm 0.00 in0.0 mm
12:19 AM 39.2°F4.0°C 28.7°F-1.8°C 66% 3.0 mph S4.8 kmh S -- 29.88 in1011.9 mb 0.00 in0.0 mm 0.00 in0.0 mm 0.00 in0.0 mm
12:24 AM 39.2°F4.0°C 27.9°F-2.3°C 64% 6.0 mph NW9.7 kmh NW -- 29.88 in1011.9 mb 0.00 in0.0 mm 0.00 in0.0 mm 0.00 in0.0 mm
12:29 AM 39.2°F4.0°C 28.3°F-2.1°C 65% 6.0 mph NW9.7 kmh NW -- 29.88 in1011.9 mb 0.00 in0.0 mm 0.00 in0.0 mm 0.00 in0.0 mm
12:34 AM 39.1°F3.9°C 28.1°F-2.2°C 65% 3.0 mph WNW4.8 kmh WNW -- 29.87 in1011.5 mb 0.00 in0.0 mm 0.00 in0.0 mm 0.00 in0.0 mm
12:39 AM 38.9°F3.8°C 27.9°F-2.3°C 65% 1.0 mph SSE1.6 kmh SSE -- 29.86 in1011.2 mb 0.00 in0.0 mm 0.00 in0.0 mm 0.00 in0.0 mm
12:44 AM 38.8°F3.8°C 27.9°F-2.3°C 65% 3.0 mph N4.8 kmh N -- 29.87 in1011.5 mb 0.00 in0.0 mm 0.00 in0.0 mm 0.00 in0.0 mm
12:49 AM 38.7°F3.7°C 27.8°F-2.3°C 65% 3.0 mph ESE4.8 kmh ESE -- 29.87 in1011.5 mb 0.00 in0.0 mm 0.00 in0.0 mm 0.00 in0.0 mm
12:54 AM 38.5°F3.6°C 28.0°F-2.2°C 66% 4.0 mph NW6.4 kmh NW -- 29.87 in1011.5 mb 0.00 in0.0 mm 0.00 in0.0 mm 0.00 in0.0 mm
12:59 AM 38.3°F3.5°C 27.8°F-2.3°C 66% 2.0 mph WNW3.2 kmh WNW -- 29.87 in1011.5 mb 0.00 in0.0 mm 0.00 in0.0 mm 0.00 in0.0 mm
01:04 AM 38.2°F3.4°C 28.0°F-2.2°C 67% 3.0 mph NW4.8 kmh NW -- 29.87 in1011.5 mb 0.00 in0.0 mm 0.00 in0.0 mm 0.00 in0.0 mm
01:09 AM 38.0°F3.3°C 27.8°F-2.3°C 67% 3.0 mph N4.8 kmh N -- 29.86 in1011.2 mb 0.00 in0.0 mm 0.00 in0.0 mm 0.00 in0.0 mm
01:14 AM 37.9°F3.3°C 27.8°F-2.3°C 67% 2.0 mph SSE3.2 kmh SSE -- 29.86 in1011.2 mb 0.00 in0.0 mm 0.00 in0.0 mm 0.00 in0.0 mm
01:19 AM 37.9°F3.3°C 27.8°F-2.3°C 67% 1.0 mph S1.6 kmh S -- 29.86 in1011.2 mb 0.00 in0.0 mm 0.00 in0.0 mm 0.00 in0.0 mm
01:24 AM 37.7°F3.2°C 27.7°F-2.4°C 67% 1.0 mph NE1.6 kmh NE -- 29.86 in1011.2 mb 0.00 in0.0 mm 0.00 in0.0 mm 0.00 in0.0 mm
01:29 AM 37.6°F3.1°C 27.9°F-2.3°C 68% 2.0 mph NNW3.2 kmh NNW -- 29.86 in1011.2 mb 0.00 in0.0 mm 0.00 in0.0 mm 0.00 in0.0 mm
01:34 AM 37.4°F3.0°C 28.0°F-2.2°C 69% 4.0 mph N6.4 kmh N -- 29.86 in1011.2 mb 0.00 in0.0 mm 0.00 in0.0 mm 0.00 in0.0 mm
01:39 AM 37.7°F3.2°C 27.7°F-2.4°C 67% 2.0 mph NW3.2 kmh NW -- 29.86 in1011.2 mb 0.00 in0.0 mm 0.00 in0.0 mm 0.00 in0.0 mm
01:44 AM 37.7°F3.2°C 28.0°F-2.2°C 68% 2.0 mph NW3.2 kmh NW -- 29.86 in1011.2 mb 0.00 in0.0 mm 0.00 in0.0 mm 0.00 in0.0 mm
01:49 AM 37.6°F3.1°C 27.9°F-2.3°C 68% 2.0 mph SW3.2 kmh SW -- 29.86 in1011.2 mb 0.00 in0.0 mm 0.00 in0.0 mm 0.00 in0.0 mm
01:54 AM 37.4°F3.0°C 27.7°F-2.4°C 68% 3.0 mph SE4.8 kmh SE -- 29.86 in1011.2 mb 0.00 in0.0 mm 0.00 in0.0 mm 0.00 in0.0 mm
01:59 AM 37.3°F2.9°C 27.9°F-2.3°C 69% 6.0 mph N9.7 kmh N -- 29.86 in1011.2 mb 0.00 in0.0 mm 0.00 in0.0 mm 0.00 in0.0 mm
02:04 AM 37.2°F2.9°C 28.2°F-2.1°C 70% 4.0 mph NW6.4 kmh NW -- 29.87 in1011.5 mb 0.00 in0.0 mm 0.00 in0.0 mm 0.00 in0.0 mm
02:09 AM 36.9°F2.7°C 27.5°F-2.5°C 69% 5.0 mph SW8.0 kmh SW -- 29.87 in1011.5 mb 0.00 in0.0 mm 0.00 in0.0 mm 0.00 in0.0 mm
02:14 AM 36.9°F2.7°C 27.5°F-2.5°C 69% 1.0 mph N1.6 kmh N -- 29.86 in1011.2 mb 0.00 in0.0 mm 0.00 in0.0 mm 0.00 in0.0 mm
02:19 AM 36.8°F2.7°C 27.5°F-2.5°C 69% 2.0 mph NNE3.2 kmh NNE -- 29.86 in1011.2 mb 0.00 in0.0 mm 0.00 in0.0 mm 0.00 in0.0 mm
02:24 AM 36.9°F2.7°C 27.5°F-2.5°C 69% 2.0 mph E3.2 kmh E -- 29.87 in1011.5 mb 0.00 in0.0 mm 0.00 in0.0 mm 0.00 in0.0 mm
02:29 AM 36.9°F2.7°C 27.5°F-2.5°C 69% 2.0 mph NW3.2 kmh NW -- 29.87 in1011.5 mb 0.00 in0.0 mm 0.00 in0.0 mm 0.00 in0.0 mm
02:34 AM 37.0°F2.8°C 27.7°F-2.4°C 69% 1.0 mph WSW1.6 kmh WSW -- 29.87 in1011.5 mb 0.00 in0.0 mm 0.00 in0.0 mm 0.00 in0.0 mm
02:39 AM 37.0°F2.8°C 27.7°F-2.4°C 69% 3.0 mph NW4.8 kmh NW -- 29.87 in1011.5 mb 0.00 in0.0 mm 0.00 in0.0 mm 0.00 in0.0 mm
02:44 AM 36.8°F2.7°C 27.5°F-2.5°C 69% Calm Calm -- 29.87 in1011.5 mb 0.00 in0.0 mm 0.00 in0.0 mm 0.00 in0.0 mm
02:49 AM 36.5°F2.5°C 27.2°F-2.7°C 69% 2.0 mph NE3.2 kmh NE -- 29.86 in1011.2 mb 0.00 in0.0 mm 0.00 in0.0 mm 0.00 in0.0 mm
02:54 AM 36.4°F2.4°C 27.7°F-2.4°C 71% 2.0 mph NNE3.2 kmh NNE -- 29.86 in1011.2 mb 0.00 in0.0 mm 0.00 in0.0 mm 0.00 in0.0 mm
02:59 AM 36.0°F2.2°C 27.7°F-2.4°C 72% 1.0 mph NW1.6 kmh NW -- 29.86 in1011.2 mb 0.00 in0.0 mm 0.00 in0.0 mm 0.00 in0.0 mm
03:04 AM 35.8°F2.1°C 27.2°F-2.7°C 71% 2.0 mph SW3.2 kmh SW -- 29.86 in1011.2 mb 0.00 in0.0 mm 0.00 in0.0 mm 0.00 in0.0 mm
03:09 AM 35.4°F1.9°C 27.2°F-2.7°C 72% 2.0 mph S3.2 kmh S -- 29.86 in1011.2 mb 0.00 in0.0 mm 0.00 in0.0 mm 0.00 in0.0 mm
03:14 AM 35.3°F1.8°C 27.4°F-2.6°C 73% 2.0 mph S3.2 kmh S -- 29.87 in1011.5 mb 0.00 in0.0 mm 0.00 in0.0 mm 0.00 in0.0 mm
03:19 AM 35.1°F1.7°C 27.2°F-2.7°C 73% 1.0 mph SSW1.6 kmh SSW -- 29.87 in1011.5 mb 0.00 in0.0 mm 0.00 in0.0 mm 0.00 in0.0 mm
03:24 AM 35.2°F1.8°C 27.4°F-2.6°C 73% 1.0 mph SE1.6 kmh SE -- 29.87 in1011.5 mb 0.00 in0.0 mm 0.00 in0.0 mm 0.00 in0.0 mm
03:29 AM 35.1°F1.7°C 27.2°F-2.7°C 73% 3.0 mph WSW4.8 kmh WSW -- 29.87 in1011.5 mb 0.00 in0.0 mm 0.00 in0.0 mm 0.00 in0.0 mm
03:34 AM 35.4°F1.9°C 27.5°F-2.5°C 73% Calm Calm -- 29.87 in1011.5 mb 0.00 in0.0 mm 0.00 in0.0 mm 0.00 in0.0 mm
03:39 AM 35.3°F1.8°C 27.4°F-2.6°C 73% 2.0 mph SW3.2 kmh SW -- 29.87 in1011.5 mb 0.00 in0.0 mm 0.00 in0.0 mm 0.00 in0.0 mm
03:44 AM 35.2°F1.8°C 27.4°F-2.6°C 73% 2.0 mph N3.2 kmh N -- 29.86 in1011.2 mb 0.00 in0.0 mm 0.00 in0.0 mm 0.00 in0.0 mm
03:49 AM 35.1°F1.7°C 27.5°F-2.5°C 74% 1.0 mph NE1.6 kmh NE -- 29.86 in1011.2 mb 0.00 in0.0 mm 0.00 in0.0 mm 0.00 in0.0 mm
03:54 AM 35.0°F1.7°C 27.2°F-2.7°C 73% Calm Calm -- 29.86 in1011.2 mb 0.00 in0.0 mm 0.00 in0.0 mm 0.00 in0.0 mm
03:59 AM 34.9°F1.6°C 27.0°F-2.8°C 73% Calm Calm -- 29.86 in1011.2 mb 0.00 in0.0 mm 0.00 in0.0 mm 0.00 in0.0 mm
04:04 AM 35.0°F1.7°C 27.2°F-2.7°C 73% 3.0 mph SW4.8 kmh SW -- 29.87 in1011.5 mb 0.00 in0.0 mm 0.00 in0.0 mm 0.00 in0.0 mm
04:09 AM 34.7°F1.5°C 26.8°F-2.9°C 73% 2.0 mph WSW3.2 kmh WSW -- 29.87 in1011.5 mb 0.00 in0.0 mm 0.00 in0.0 mm 0.00 in0.0 mm
04:14 AM 34.7°F1.5°C 26.8°F-2.9°C 73% 1.0 mph SSW1.6 kmh SSW -- 29.87 in1011.5 mb 0.00 in0.0 mm 0.00 in0.0 mm 0.00 in0.0 mm
04:19 AM 34.6°F1.4°C 27.0°F-2.8°C 74% Calm Calm -- 29.87 in1011.5 mb 0.00 in0.0 mm 0.00 in0.0 mm 0.00 in0.0 mm
04:24 AM 34.4°F1.3°C 26.8°F-2.9°C 74% Calm Calm -- 29.87 in1011.5 mb 0.00 in0.0 mm 0.00 in0.0 mm 0.00 in0.0 mm
04:29 AM 34.2°F1.2°C 26.6°F-3.0°C 74% Calm Calm -- 29.87 in1011.5 mb 0.00 in0.0 mm 0.00 in0.0 mm 0.00 in0.0 mm
04:34 AM 34.0°F1.1°C 26.8°F-2.9°C 75% Calm Calm -- 29.87 in1011.5 mb 0.00 in0.0 mm 0.00 in0.0 mm 0.00 in0.0 mm
04:39 AM 33.7°F0.9°C 26.8°F-2.9°C 76% 2.0 mph ENE3.2 kmh ENE -- 29.87 in1011.5 mb 0.00 in0.0 mm 0.00 in0.0 mm 0.00 in0.0 mm
04:44 AM 33.4°F0.8°C 26.9°F-2.8°C 77% 1.0 mph ESE1.6 kmh ESE -- 29.87 in1011.5 mb 0.00 in0.0 mm 0.00 in0.0 mm 0.00 in0.0 mm
04:49 AM 33.2°F0.7°C 26.7°F-2.9°C 77% Calm Calm -- 29.88 in1011.9 mb 0.00 in0.0 mm 0.00 in0.0 mm 0.00 in0.0 mm
04:54 AM 32.8°F0.4°C 26.5°F-3.1°C 78% 2.0 mph NE3.2 kmh NE -- 29.88 in1011.9 mb 0.00 in0.0 mm 0.00 in0.0 mm 0.00 in0.0 mm
04:59 AM 32.6°F0.3°C 27.0°F-2.8°C 80% 1.0 mph SE1.6 kmh SE -- 29.88 in1011.9 mb 0.00 in0.0 mm 0.00 in0.0 mm 0.00 in0.0 mm
05:04 AM 32.4°F0.2°C 27.1°F-2.7°C 81% 1.0 mph SSW1.6 kmh SSW -- 29.88 in1011.9 mb 0.00 in0.0 mm 0.00 in0.0 mm 0.00 in0.0 mm
05:09 AM 32.3°F0.2°C 26.8°F-2.9°C 80% Calm Calm -- 29.88 in1011.9 mb 0.00 in0.0 mm 0.00 in0.0 mm 0.00 in0.0 mm
05:14 AM 32.3°F0.2°C 26.8°F-2.9°C 80% Calm Calm -- 29.89 in1012.2 mb 0.00 in0.0 mm 0.00 in0.0 mm 0.00 in0.0 mm
05:19 AM 32.2°F0.1°C 26.6°F-3.0°C 80% Calm Calm -- 29.88 in1011.9 mb 0.00 in0.0 mm 0.00 in0.0 mm 0.00 in0.0 mm
05:24 AM 32.3°F0.2°C 27.1°F-2.7°C 81% 1.0 mph S1.6 kmh S -- 29.89 in1012.2 mb 0.00 in0.0 mm 0.00 in0.0 mm 0.00 in0.0 mm
05:29 AM 32.2°F0.1°C 26.9°F-2.8°C 81% Calm Calm -- 29.89 in1012.2 mb 0.00 in0.0 mm 0.00 in0.0 mm 0.00 in0.0 mm
05:34 AM 32.1°F0.1°C 26.9°F-2.8°C 81% Calm Calm -- 29.90 in1012.5 mb 0.00 in0.0 mm 0.00 in0.0 mm 0.00 in0.0 mm
05:39 AM 32.0°F0.0°C 26.8°F-2.9°C 81% Calm Calm -- 29.89 in1012.2 mb 0.00 in0.0 mm 0.00 in0.0 mm 0.00 in0.0 mm
05:44 AM 31.9°F-0.1°C 26.9°F-2.8°C 82% 1.0 mph S1.6 kmh S -- 29.90 in1012.5 mb 0.00 in0.0 mm 0.00 in0.0 mm 0.00 in0.0 mm
05:49 AM 32.0°F0.0°C 27.1°F-2.7°C 82% 3.0 mph W4.8 kmh W -- 29.90 in1012.5 mb 0.00 in0.0 mm 0.00 in0.0 mm 0.00 in0.0 mm
05:54 AM 32.3°F0.2°C 27.1°F-2.7°C 81% 4.0 mph SW6.4 kmh SW -- 29.91 in1012.9 mb 0.00 in0.0 mm 0.00 in0.0 mm 0.00 in0.0 mm
05:59 AM 32.8°F0.4°C 27.2°F-2.7°C 80% 1.0 mph S1.6 kmh S -- 29.91 in1012.9 mb 0.00 in0.0 mm 0.00 in0.0 mm 0.00 in0.0 mm
06:04 AM 33.0°F0.6°C 27.2°F-2.7°C 79% 3.0 mph N4.8 kmh N -- 29.91 in1012.9 mb 0.00 in0.0 mm 0.00 in0.0 mm 0.00 in0.0 mm
06:09 AM 33.2°F0.7°C 27.4°F-2.6°C 79% 2.0 mph ENE3.2 kmh ENE -- 29.91 in1012.9 mb 0.00 in0.0 mm 0.00 in0.0 mm 0.00 in0.0 mm
06:14 AM 33.3°F0.7°C 27.1°F-2.7°C 78% 3.0 mph WSW4.8 kmh WSW -- 29.91 in1012.9 mb 0.00 in0.0 mm 0.00 in0.0 mm 0.00 in0.0 mm
06:19 AM 33.2°F0.7°C 27.1°F-2.7°C 78% Calm Calm -- 29.91 in1012.9 mb 0.00 in0.0 mm 0.00 in0.0 mm 0.00 in0.0 mm
06:24 AM 33.2°F0.7°C 27.1°F-2.7°C 78% 2.0 mph WNW3.2 kmh WNW -- 29.91 in1012.9 mb 0.00 in0.0 mm 0.00 in0.0 mm 0.00 in0.0 mm
06:29 AM 33.1°F0.6°C 26.9°F-2.8°C 78% 1.0 mph S1.6 kmh S -- 29.91 in1012.9 mb 0.00 in0.0 mm 0.00 in0.0 mm 0.00 in0.0 mm
06:34 AM 32.9°F0.5°C 27.0°F-2.8°C 79% 1.0 mph S1.6 kmh S -- 29.92 in1013.2 mb 0.00 in0.0 mm 0.00 in0.0 mm 0.00 in0.0 mm
06:39 AM 32.8°F0.4°C 26.8°F-2.9°C 79% 2.0 mph WSW3.2 kmh WSW -- 29.91 in1012.9 mb 0.00 in0.0 mm 0.00 in0.0 mm 0.00 in0.0 mm
06:44 AM 32.8°F0.4°C 26.8°F-2.9°C 79% 2.0 mph SSW3.2 kmh SSW -- 29.92 in1013.2 mb 0.00 in0.0 mm 0.00 in0.0 mm 0.00 in0.0 mm
06:49 AM 32.6°F0.3°C 26.7°F-2.9°C 79% 2.0 mph W3.2 kmh W -- 29.91 in1012.9 mb 0.00 in0.0 mm 0.00 in0.0 mm 0.00 in0.0 mm
06:54 AM 32.9°F0.5°C 27.0°F-2.8°C 79% 3.0 mph SW4.8 kmh SW -- 29.91 in1012.9 mb 0.00 in0.0 mm 0.00 in0.0 mm 0.00 in0.0 mm
06:59 AM 33.0°F0.6°C 27.2°F-2.7°C 79% 1.0 mph S1.6 kmh S -- 29.90 in1012.5 mb 0.00 in0.0 mm 0.00 in0.0 mm 0.00 in0.0 mm
07:04 AM 33.0°F0.6°C 26.9°F-2.8°C 78% 2.0 mph WSW3.2 kmh WSW -- 29.91 in1012.9 mb 0.00 in0.0 mm 0.00 in0.0 mm 0.00 in0.0 mm
07:09 AM 33.2°F0.7°C 27.4°F-2.6°C 79% 2.0 mph WSW3.2 kmh WSW -- 29.91 in1012.9 mb 0.00 in0.0 mm 0.00 in0.0 mm 0.00 in0.0 mm
07:14 AM 33.2°F0.7°C 27.4°F-2.6°C 79% 3.0 mph WNW4.8 kmh WNW -- 29.91 in1012.9 mb 0.00 in0.0 mm 0.00 in0.0 mm 0.00 in0.0 mm
07:19 AM 33.4°F0.8°C 27.2°F-2.7°C 78% 3.0 mph SSW4.8 kmh SSW -- 29.91 in1012.9 mb 0.00 in0.0 mm 0.00 in0.0 mm 0.00 in0.0 mm
07:24 AM 33.5°F0.8°C 27.2°F-2.7°C 78% 2.0 mph NE3.2 kmh NE -- 29.91 in1012.9 mb 0.00 in0.0 mm 0.00 in0.0 mm 0.00 in0.0 mm
07:29 AM 33.5°F0.8°C 27.2°F-2.7°C 78% 2.0 mph WNW3.2 kmh WNW -- 29.90 in1012.5 mb 0.00 in0.0 mm 0.00 in0.0 mm 0.00 in0.0 mm
07:34 AM 33.3°F0.7°C 27.1°F-2.7°C 78% Calm Calm -- 29.90 in1012.5 mb 0.00 in0.0 mm 0.00 in0.0 mm 0.00 in0.0 mm
07:39 AM 33.6°F0.9°C 27.4°F-2.6°C 78% 3.0 mph NNW4.8 kmh NNW -- 29.91 in1012.9 mb 0.00 in0.0 mm 0.00 in0.0 mm 0.00 in0.0 mm
07:44 AM 33.8°F1.0°C 27.6°F-2.4°C 78% 1.0 mph SSW1.6 kmh SSW -- 29.90 in1012.5 mb 0.00 in0.0 mm 0.00 in0.0 mm 0.00 in0.0 mm
07:49 AM 33.8°F1.0°C 27.3°F-2.6°C 77% Calm Calm -- 29.90 in1012.5 mb 0.00 in0.0 mm 0.00 in0.0 mm 0.00 in0.0 mm
07:54 AM 34.0°F1.1°C 27.8°F-2.3°C 78% 1.0 mph SW1.6 kmh SW -- 29.90 in1012.5 mb 0.00 in0.0 mm 0.00 in0.0 mm 0.00 in0.0 mm
07:59 AM 34.1°F1.2°C 27.6°F-2.4°C 77% Calm Calm -- 29.90 in1012.5 mb 0.00 in0.0 mm 0.00 in0.0 mm 0.00 in0.0 mm
08:04 AM 34.2°F1.2°C 27.6°F-2.4°C 77% 1.0 mph S1.6 kmh S -- 29.90 in1012.5 mb 0.00 in0.0 mm 0.00 in0.0 mm 0.00 in0.0 mm
08:09 AM 34.6°F1.4°C 27.6°F-2.4°C 76% 3.0 mph W4.8 kmh W -- 29.90 in1012.5 mb 0.00 in0.0 mm 0.00 in0.0 mm 0.00 in0.0 mm
08:14 AM 34.8°F1.6°C 28.0°F-2.2°C 76% 2.0 mph NE3.2 kmh NE -- 29.90 in1012.5 mb 0.00 in0.0 mm 0.00 in0.0 mm 0.00 in0.0 mm
08:19 AM 35.0°F1.7°C 27.8°F-2.3°C 75% 1.0 mph WSW1.6 kmh WSW -- 29.90 in1012.5 mb 0.00 in0.0 mm 0.00 in0.0 mm 0.00 in0.0 mm
08:24 AM 35.6°F2.0°C 28.0°F-2.2°C 74% 2.0 mph NNW3.2 kmh NNW -- 29.90 in1012.5 mb 0.00 in0.0 mm 0.00 in0.0 mm 0.00 in0.0 mm
08:29 AM 35.8°F2.1°C 28.2°F-2.1°C 74% 1.0 mph S1.6 kmh S -- 29.90 in1012.5 mb 0.00 in0.0 mm 0.00 in0.0 mm 0.00 in0.0 mm
08:34 AM 36.1°F2.3°C 28.6°F-1.9°C 74% Calm Calm -- 29.90 in1012.5 mb 0.00 in0.0 mm 0.00 in0.0 mm 0.00 in0.0 mm
08:39 AM 36.2°F2.3°C 28.6°F-1.9°C 74% 2.0 mph NW3.2 kmh NW -- 29.90 in1012.5 mb 0.00 in0.0 mm 0.00 in0.0 mm 0.00 in0.0 mm
08:44 AM 36.4°F2.4°C 28.4°F-2.0°C 73% 4.0 mph WSW6.4 kmh WSW -- 29.91 in1012.9 mb 0.00 in0.0 mm 0.00 in0.0 mm 0.00 in0.0 mm
08:49 AM 37.0°F2.8°C 28.7°F-1.8°C 72% 1.0 mph S1.6 kmh S -- 29.91 in1012.9 mb 0.00 in0.0 mm 0.00 in0.0 mm 0.00 in0.0 mm
08:54 AM 37.9°F3.3°C 28.9°F-1.7°C 70% 1.0 mph S1.6 kmh S -- 29.91 in1012.9 mb 0.00 in0.0 mm 0.00 in0.0 mm 0.00 in0.0 mm
08:59 AM 38.7°F3.7°C 28.5°F-1.9°C 67% 1.0 mph N1.6 kmh N -- 29.91 in1012.9 mb 0.00 in0.0 mm 0.00 in0.0 mm 0.00 in0.0 mm
09:04 AM 39.1°F3.9°C 28.5°F-1.9°C 66% 5.0 mph WSW8.0 kmh WSW -- 29.91 in1012.9 mb 0.00 in0.0 mm 0.00 in0.0 mm 0.00 in0.0 mm
09:09 AM 39.2°F4.0°C 28.7°F-1.8°C 66% 4.0 mph NNW6.4 kmh NNW -- 29.91 in1012.9 mb 0.00 in0.0 mm 0.00 in0.0 mm 0.00 in0.0 mm
09:14 AM 39.3°F4.1°C 28.8°F-1.8°C 66% 3.0 mph NNW4.8 kmh NNW -- 29.91 in1012.9 mb 0.00 in0.0 mm 0.00 in0.0 mm 0.00 in0.0 mm
09:19 AM 39.5°F4.2°C 29.0°F-1.7°C 66% 5.0 mph NNW8.0 kmh NNW -- 29.91 in1012.9 mb 0.00 in0.0 mm 0.00 in0.0 mm 0.00 in0.0 mm
09:24 AM 39.5°F4.2°C 28.3°F-2.1°C 64% 4.0 mph WNW6.4 kmh WNW -- 29.91 in1012.9 mb 0.00 in0.0 mm 0.00 in0.0 mm 0.00 in0.0 mm
09:29 AM 39.7°F4.3°C 28.8°F-1.8°C 65% 4.0 mph S6.4 kmh S -- 29.91 in1012.9 mb 0.00 in0.0 mm 0.00 in0.0 mm 0.00 in0.0 mm
09:34 AM 40.4°F4.7°C 29.1°F-1.6°C 64% 5.0 mph N8.0 kmh N -- 29.91 in1012.9 mb 0.00 in0.0 mm 0.00 in0.0 mm 0.00 in0.0 mm
09:39 AM 41.0°F5.0°C 29.2°F-1.6°C 63% 4.0 mph NNW6.4 kmh NNW -- 29.90 in1012.5 mb 0.00 in0.0 mm 0.00 in0.0 mm 0.00 in0.0 mm
09:44 AM 40.8°F4.9°C 28.7°F-1.8°C 62% 6.0 mph W9.7 kmh W -- 29.90 in1012.5 mb 0.00 in0.0 mm 0.00 in0.0 mm 0.00 in0.0 mm
09:49 AM 40.6°F4.8°C 28.9°F-1.7°C 63% 7.0 mph NW11.3 kmh NW -- 29.90 in1012.5 mb 0.00 in0.0 mm 0.00 in0.0 mm 0.00 in0.0 mm
09:54 AM 41.2°F5.1°C 29.0°F-1.7°C 62% Calm Calm -- 29.90 in1012.5 mb 0.00 in0.0 mm 0.00 in0.0 mm 0.00 in0.0 mm
09:59 AM 41.8°F5.4°C 29.1°F-1.6°C 61% 3.0 mph NW4.8 kmh NW -- 29.90 in1012.5 mb 0.00 in0.0 mm 0.00 in0.0 mm 0.00 in0.0 mm
10:04 AM 42.3°F5.7°C 29.2°F-1.6°C 60% 2.0 mph NE3.2 kmh NE -- 29.90 in1012.5 mb 0.00 in0.0 mm 0.00 in0.0 mm 0.00 in0.0 mm
10:09 AM 42.3°F5.7°C 29.2°F-1.6°C 60% 6.0 mph WNW9.7 kmh WNW -- 29.90 in1012.5 mb 0.00 in0.0 mm 0.00 in0.0 mm 0.00 in0.0 mm
10:14 AM 42.5°F5.8°C 29.0°F-1.7°C 59% 5.0 mph NW8.0 kmh NW -- 29.90 in1012.5 mb 0.00 in0.0 mm 0.00 in0.0 mm 0.00 in0.0 mm
10:19 AM 42.7°F5.9°C 29.6°F-1.3°C 60% 4.0 mph N6.4 kmh N -- 29.91 in1012.9 mb 0.00 in0.0 mm 0.00 in0.0 mm 0.00 in0.0 mm
10:24 AM 43.3°F6.3°C 30.2°F-1.0°C 60% 4.0 mph NW6.4 kmh NW -- 29.91 in1012.9 mb 0.00 in0.0 mm 0.00 in0.0 mm 0.00 in0.0 mm
10:29 AM 42.6°F5.9°C 29.1°F-1.6°C 59% 5.0 mph N8.0 kmh N -- 29.91 in1012.9 mb 0.00 in0.0 mm 0.00 in0.0 mm 0.00 in0.0 mm
10:34 AM 43.5°F6.4°C 30.0°F-1.1°C 59% 2.0 mph S3.2 kmh S -- 29.91 in1012.9 mb 0.00 in0.0 mm 0.00 in0.0 mm 0.00 in0.0 mm
10:39 AM 43.6°F6.4°C 30.4°F-0.9°C 60% 5.0 mph N8.0 kmh N -- 29.90 in1012.5 mb 0.00 in0.0 mm 0.00 in0.0 mm 0.00 in0.0 mm
10:44 AM 43.3°F6.3°C 29.8°F-1.2°C 59% 2.0 mph NNW3.2 kmh NNW -- 29.90 in1012.5 mb 0.00 in0.0 mm 0.00 in0.0 mm 0.00 in0.0 mm
10:49 AM 43.4°F6.3°C 29.4°F-1.4°C 58% 10.0 mph NNW16.1 kmh NNW -- 29.90 in1012.5 mb 0.00 in0.0 mm 0.00 in0.0 mm 0.00 in0.0 mm
10:54 AM 43.1°F6.2°C 29.2°F-1.6°C 58% 8.0 mph NW12.9 kmh NW -- 29.90 in1012.5 mb 0.00 in0.0 mm 0.00 in0.0 mm 0.00 in0.0 mm
10:59 AM 43.5°F6.4°C 28.7°F-1.8°C 56% 4.0 mph NW6.4 kmh NW -- 29.89 in1012.2 mb 0.00 in0.0 mm 0.00 in0.0 mm 0.00 in0.0 mm
11:04 AM 43.6°F6.4°C 29.1°F-1.6°C 57% 3.0 mph N4.8 kmh N -- 29.89 in1012.2 mb 0.00 in0.0 mm 0.00 in0.0 mm 0.00 in0.0 mm
11:09 AM 44.5°F6.9°C 30.0°F-1.1°C 57% 2.0 mph ENE3.2 kmh ENE -- 29.89 in1012.2 mb 0.00 in0.0 mm 0.00 in0.0 mm 0.00 in0.0 mm
11:14 AM 44.5°F6.9°C 30.4°F-0.9°C 58% Calm Calm -- 29.88 in1011.9 mb 0.00 in0.0 mm 0.00 in0.0 mm 0.00 in0.0 mm
11:19 AM 44.4°F6.9°C 29.1°F-1.6°C 55% 2.0 mph N3.2 kmh N -- 29.89 in1012.2 mb 0.00 in0.0 mm 0.00 in0.0 mm 0.00 in0.0 mm
11:24 AM 44.9°F7.2°C 30.1°F-1.1°C 56% 2.0 mph W3.2 kmh W -- 29.88 in1011.9 mb 0.00 in0.0 mm 0.00 in0.0 mm 0.00 in0.0 mm
11:29 AM 45.3°F7.4°C 30.8°F-0.7°C 57% 4.0 mph WNW6.4 kmh WNW -- 29.89 in1012.2 mb 0.00 in0.0 mm 0.00 in0.0 mm 0.00 in0.0 mm
11:34 AM 45.0°F7.2°C 30.1°F-1.1°C 56% 6.0 mph WSW9.7 kmh WSW -- 29.88 in1011.9 mb 0.00 in0.0 mm 0.00 in0.0 mm 0.00 in0.0 mm
11:39 AM 45.2°F7.3°C 30.2°F-1.0°C 56% 2.0 mph WSW3.2 kmh WSW -- 29.87 in1011.5 mb 0.00 in0.0 mm 0.00 in0.0 mm 0.00 in0.0 mm
11:44 AM 44.6°F7.0°C 29.3°F-1.5°C 55% 5.0 mph NNE8.0 kmh NNE -- 29.87 in1011.5 mb 0.00 in0.0 mm 0.00 in0.0 mm 0.00 in0.0 mm
11:49 AM 44.9°F7.2°C 29.6°F-1.3°C 55% 4.0 mph ESE6.4 kmh ESE -- 29.87 in1011.5 mb 0.00 in0.0 mm 0.00 in0.0 mm 0.00 in0.0 mm
11:54 AM 45.9°F7.7°C 30.0°F-1.1°C 54% 3.0 mph WNW4.8 kmh WNW -- 29.86 in1011.2 mb 0.00 in0.0 mm 0.00 in0.0 mm 0.00 in0.0 mm
11:59 AM 45.1°F7.3°C 29.8°F-1.2°C 55% 6.0 mph W9.7 kmh W -- 29.87 in1011.5 mb 0.00 in0.0 mm 0.00 in0.0 mm 0.00 in0.0 mm
12:04 PM 45.7°F7.6°C 29.8°F-1.2°C 54% 2.0 mph SW3.2 kmh SW -- 29.87 in1011.5 mb 0.00 in0.0 mm 0.00 in0.0 mm 0.00 in0.0 mm
12:09 PM 46.4°F8.0°C 30.0°F-1.1°C 53% 3.0 mph N4.8 kmh N -- 29.87 in1011.5 mb 0.00 in0.0 mm 0.00 in0.0 mm 0.00 in0.0 mm
12:14 PM 46.0°F7.8°C 29.7°F-1.3°C 53% 6.0 mph NW9.7 kmh NW -- 29.86 in1011.2 mb 0.00 in0.0 mm 0.00 in0.0 mm 0.00 in0.0 mm
12:19 PM 46.5°F8.1°C 31.1°F-0.5°C 55% 3.0 mph NE4.8 kmh NE -- 29.86 in1011.2 mb 0.00 in0.0 mm 0.00 in0.0 mm 0.00 in0.0 mm
12:24 PM 46.3°F7.9°C 29.9°F-1.2°C 53% 3.0 mph NNE4.8 kmh NNE -- 29.86 in1011.2 mb 0.00 in0.0 mm 0.00 in0.0 mm 0.00 in0.0 mm
12:29 PM 46.6°F8.1°C 31.1°F-0.5°C 55% 6.0 mph WNW9.7 kmh WNW -- 29.86 in1011.2 mb 0.00 in0.0 mm 0.00 in0.0 mm 0.00 in0.0 mm
12:34 PM 47.1°F8.4°C 30.2°F-1.0°C 52% 4.0 mph NE6.4 kmh NE -- 29.86 in1011.2 mb 0.00 in0.0 mm 0.00 in0.0 mm 0.00 in0.0 mm
12:39 PM 48.0°F8.9°C 31.1°F-0.5°C 52% 3.0 mph WNW4.8 kmh WNW -- 29.86 in1011.2 mb 0.00 in0.0 mm 0.00 in0.0 mm 0.00 in0.0 mm
12:44 PM 47.6°F8.7°C 30.2°F-1.0°C 51% 8.0 mph NW12.9 kmh NW -- 29.86 in1011.2 mb 0.00 in0.0 mm 0.00 in0.0 mm 0.00 in0.0 mm
12:49 PM 47.8°F8.8°C 31.8°F-0.1°C 54% 8.0 mph N12.9 kmh N -- 29.85 in1010.8 mb 0.00 in0.0 mm 0.00 in0.0 mm 0.00 in0.0 mm
12:54 PM 47.2°F8.4°C 30.2°F-1.0°C 52% 3.0 mph NNW4.8 kmh NNW -- 29.85 in1010.8 mb 0.00 in0.0 mm 0.00 in0.0 mm 0.00 in0.0 mm
12:59 PM 47.6°F8.7°C 31.2°F-0.4°C 53% 7.0 mph NNW11.3 kmh NNW -- 29.85 in1010.8 mb 0.00 in0.0 mm 0.00 in0.0 mm 0.00 in0.0 mm
01:04 PM 47.6°F8.7°C 30.7°F-0.7°C 52% 6.0 mph NNW9.7 kmh NNW -- 29.85 in1010.8 mb 0.00 in0.0 mm 0.00 in0.0 mm 0.00 in0.0 mm
01:09 PM 47.6°F8.7°C 31.7°F-0.2°C 54% 9.0 mph NNW14.5 kmh NNW -- 29.85 in1010.8 mb 0.00 in0.0 mm 0.00 in0.0 mm 0.00 in0.0 mm
01:14 PM 47.5°F8.6°C 30.6°F-0.8°C 52% 8.0 mph NNE12.9 kmh NNE -- 29.84 in1010.5 mb 0.00 in0.0 mm 0.00 in0.0 mm 0.00 in0.0 mm
01:19 PM 48.0°F8.9°C 30.6°F-0.8°C 51% 8.0 mph NW12.9 kmh NW -- 29.84 in1010.5 mb 0.00 in0.0 mm 0.00 in0.0 mm 0.00 in0.0 mm
01:24 PM 48.4°F9.1°C 30.9°F-0.6°C 51% 3.0 mph WNW4.8 kmh WNW -- 29.84 in1010.5 mb 0.00 in0.0 mm 0.00 in0.0 mm 0.00 in0.0 mm
01:29 PM 48.4°F9.1°C 30.4°F-0.9°C 50% 3.0 mph SW4.8 kmh SW -- 29.83 in1010.2 mb 0.00 in0.0 mm 0.00 in0.0 mm 0.00 in0.0 mm
01:34 PM 48.6°F9.2°C 31.1°F-0.5°C 51% 4.0 mph W6.4 kmh W -- 29.83 in1010.2 mb 0.00 in0.0 mm 0.00 in0.0 mm 0.00 in0.0 mm
01:39 PM 48.5°F9.2°C 31.1°F-0.5°C 51% 4.0 mph WNW6.4 kmh WNW -- 29.83 in1010.2 mb 0.00 in0.0 mm 0.00 in0.0 mm 0.00 in0.0 mm
01:44 PM 49.0°F9.4°C 32.4°F0.2°C 53% 8.0 mph NNW12.9 kmh NNW -- 29.83 in1010.2 mb 0.00 in0.0 mm 0.00 in0.0 mm 0.00 in0.0 mm
01:49 PM 48.2°F9.0°C 30.7°F-0.7°C 51% 7.0 mph NW11.3 kmh NW -- 29.83 in1010.2 mb 0.00 in0.0 mm 0.00 in0.0 mm 0.00 in0.0 mm
01:54 PM 48.5°F9.2°C 31.6°F-0.2°C 52% 4.0 mph NW6.4 kmh NW -- 29.82 in1009.8 mb 0.00 in0.0 mm 0.00 in0.0 mm 0.00 in0.0 mm
01:59 PM 48.2°F9.0°C 30.7°F-0.7°C 51% 3.0 mph WNW4.8 kmh WNW -- 29.82 in1009.8 mb 0.00 in0.0 mm 0.00 in0.0 mm 0.00 in0.0 mm
02:04 PM 49.3°F9.6°C 31.8°F-0.1°C 51% 4.0 mph W6.4 kmh W -- 29.82 in1009.8 mb 0.00 in0.0 mm 0.00 in0.0 mm 0.00 in0.0 mm
02:09 PM 49.5°F9.7°C 31.9°F-0.1°C 51% 3.0 mph WNW4.8 kmh WNW -- 29.82 in1009.8 mb 0.00 in0.0 mm 0.00 in0.0 mm 0.00 in0.0 mm
02:14 PM 49.6°F9.8°C 32.6°F0.3°C 52% 7.0 mph NNW11.3 kmh NNW -- 29.82 in1009.8 mb 0.00 in0.0 mm 0.00 in0.0 mm 0.00 in0.0 mm
02:19 PM 49.5°F9.7°C 31.4°F-0.3°C 50% 5.0 mph W8.0 kmh W -- 29.82 in1009.8 mb 0.00 in0.0 mm 0.00 in0.0 mm 0.00 in0.0 mm
02:24 PM 49.4°F9.7°C 31.9°F-0.1°C 51% 8.0 mph NNE12.9 kmh NNE -- 29.82 in1009.8 mb 0.00 in0.0 mm 0.00 in0.0 mm 0.00 in0.0 mm
02:29 PM 49.5°F9.7°C 31.9°F-0.1°C 51% 6.0 mph NNE9.7 kmh NNE -- 29.82 in1009.8 mb 0.00 in0.0 mm 0.00 in0.0 mm 0.00 in0.0 mm
02:34 PM 49.2°F9.6°C 31.3°F-0.4°C 50% 3.0 mph NW4.8 kmh NW -- 29.82 in1009.8 mb 0.00 in0.0 mm 0.00 in0.0 mm 0.00 in0.0 mm
02:39 PM 49.3°F9.6°C 31.3°F-0.4°C 50% 2.0 mph SSE3.2 kmh SSE -- 29.82 in1009.8 mb 0.00 in0.0 mm 0.00 in0.0 mm 0.00 in0.0 mm
02:44 PM 49.5°F9.7°C 31.4°F-0.3°C 50% 2.0 mph N3.2 kmh N -- 29.81 in1009.5 mb 0.00 in0.0 mm 0.00 in0.0 mm 0.00 in0.0 mm
02:49 PM 49.7°F9.8°C 31.6°F-0.2°C 50% 4.0 mph NNW6.4 kmh NNW -- 29.81 in1009.5 mb 0.00 in0.0 mm 0.00 in0.0 mm 0.00 in0.0 mm
02:54 PM 49.3°F9.6°C 31.3°F-0.4°C 50% 6.0 mph NW9.7 kmh NW -- 29.81 in1009.5 mb 0.00 in0.0 mm 0.00 in0.0 mm 0.00 in0.0 mm
02:59 PM 49.2°F9.6°C 31.3°F-0.4°C 50% 3.0 mph NNW4.8 kmh NNW -- 29.80 in1009.1 mb 0.00 in0.0 mm 0.00 in0.0 mm 0.00 in0.0 mm
03:04 PM 49.2°F9.6°C 32.2°F0.1°C 52% 4.0 mph WNW6.4 kmh WNW -- 29.80 in1009.1 mb 0.00 in0.0 mm 0.00 in0.0 mm 0.00 in0.0 mm
03:09 PM 48.9°F9.4°C 31.4°F-0.3°C 51% 7.0 mph NW11.3 kmh NW -- 29.80 in1009.1 mb 0.00 in0.0 mm 0.00 in0.0 mm 0.00 in0.0 mm
03:14 PM 48.9°F9.4°C 31.4°F-0.3°C 51% 5.0 mph NW8.0 kmh NW -- 29.80 in1009.1 mb 0.00 in0.0 mm 0.00 in0.0 mm 0.00 in0.0 mm
03:19 PM 48.6°F9.2°C 31.1°F-0.5°C 51% 3.0 mph NW4.8 kmh NW -- 29.80 in1009.1 mb 0.00 in0.0 mm 0.00 in0.0 mm 0.00 in0.0 mm
03:24 PM 48.6°F9.2°C 31.6°F-0.2°C 52% 4.0 mph N6.4 kmh N -- 29.80 in1009.1 mb 0.00 in0.0 mm 0.00 in0.0 mm 0.00 in0.0 mm
03:29 PM 48.4°F9.1°C 31.4°F-0.3°C 52% 6.0 mph N9.7 kmh N -- 29.80 in1009.1 mb 0.00 in0.0 mm 0.00 in0.0 mm 0.00 in0.0 mm
03:34 PM 48.4°F9.1°C 30.9°F-0.6°C 51% 4.0 mph NW6.4 kmh NW -- 29.80 in1009.1 mb 0.00 in0.0 mm 0.00 in0.0 mm 0.00 in0.0 mm
03:39 PM 48.4°F9.1°C 30.9°F-0.6°C 51% 4.0 mph N6.4 kmh N -- 29.80 in1009.1 mb 0.00 in0.0 mm 0.00 in0.0 mm 0.00 in0.0 mm
03:44 PM 48.1°F8.9°C 30.6°F-0.8°C 51% 5.0 mph WSW8.0 kmh WSW -- 29.80 in1009.1 mb 0.00 in0.0 mm 0.00 in0.0 mm 0.00 in0.0 mm
03:49 PM 48.1°F8.9°C 31.1°F-0.5°C 52% 1.0 mph ENE1.6 kmh ENE -- 29.80 in1009.1 mb 0.00 in0.0 mm 0.00 in0.0 mm 0.00 in0.0 mm
03:54 PM 48.1°F8.9°C 30.6°F-0.8°C 51% 4.0 mph WNW6.4 kmh WNW -- 29.81 in1009.5 mb 0.00 in0.0 mm 0.00 in0.0 mm 0.00 in0.0 mm
03:59 PM 47.9°F8.8°C 30.9°F-0.6°C 52% 4.0 mph NNW6.4 kmh NNW -- 29.81 in1009.5 mb 0.00 in0.0 mm 0.00 in0.0 mm 0.00 in0.0 mm
04:04 PM 47.5°F8.6°C 30.1°F-1.1°C 51% 2.0 mph NE3.2 kmh NE -- 29.81 in1009.5 mb 0.00 in0.0 mm 0.00 in0.0 mm 0.00 in0.0 mm
04:09 PM 47.3°F8.5°C 30.4°F-0.9°C 52% 8.0 mph NW12.9 kmh NW -- 29.81 in1009.5 mb 0.00 in0.0 mm 0.00 in0.0 mm 0.00 in0.0 mm
04:14 PM 47.1°F8.4°C 30.7°F-0.7°C 53% 3.0 mph SW4.8 kmh SW -- 29.81 in1009.5 mb 0.00 in0.0 mm 0.00 in0.0 mm 0.00 in0.0 mm
04:19 PM 46.8°F8.2°C 30.4°F-0.9°C 53% 3.0 mph NNW4.8 kmh NNW -- 29.81 in1009.5 mb 0.00 in0.0 mm 0.00 in0.0 mm 0.00 in0.0 mm
04:24 PM 46.7°F8.2°C 30.8°F-0.7°C 54% 3.0 mph NW4.8 kmh NW -- 29.81 in1009.5 mb 0.00 in0.0 mm 0.00 in0.0 mm 0.00 in0.0 mm
04:29 PM 46.6°F8.1°C 30.7°F-0.7°C 54% 2.0 mph S3.2 kmh S -- 29.81 in1009.5 mb 0.00 in0.0 mm 0.00 in0.0 mm 0.00 in0.0 mm
04:34 PM 46.5°F8.1°C 31.1°F-0.5°C 55% 3.0 mph NW4.8 kmh NW -- 29.81 in1009.5 mb 0.00 in0.0 mm 0.00 in0.0 mm 0.00 in0.0 mm
04:39 PM 46.2°F7.9°C 30.8°F-0.7°C 55% 3.0 mph NNW4.8 kmh NNW -- 29.81 in1009.5 mb 0.00 in0.0 mm 0.00 in0.0 mm 0.00 in0.0 mm
04:44 PM 46.1°F7.8°C 30.6°F-0.8°C 55% 4.0 mph NW6.4 kmh NW -- 29.82 in1009.8 mb 0.00 in0.0 mm 0.00 in0.0 mm 0.00 in0.0 mm
04:49 PM 45.9°F7.7°C 30.9°F-0.6°C 56% 2.0 mph SW3.2 kmh SW -- 29.81 in1009.5 mb 0.00 in0.0 mm 0.00 in0.0 mm 0.00 in0.0 mm
04:54 PM 45.5°F7.5°C 30.6°F-0.8°C 56% 1.0 mph SW1.6 kmh SW -- 29.81 in1009.5 mb 0.00 in0.0 mm 0.00 in0.0 mm 0.00 in0.0 mm
04:59 PM 45.3°F7.4°C 30.4°F-0.9°C 56% 3.0 mph NNW4.8 kmh NNW -- 29.82 in1009.8 mb 0.00 in0.0 mm 0.00 in0.0 mm 0.00 in0.0 mm
05:04 PM 45.0°F7.2°C 30.9°F-0.6°C 58% 1.0 mph SSW1.6 kmh SSW -- 29.82 in1009.8 mb 0.00 in0.0 mm 0.00 in0.0 mm 0.00 in0.0 mm
05:09 PM 44.6°F7.0°C 30.6°F-0.8°C 58% 1.0 mph S1.6 kmh S -- 29.82 in1009.8 mb 0.00 in0.0 mm 0.00 in0.0 mm 0.00 in0.0 mm
05:14 PM 44.2°F6.8°C 30.7°F-0.7°C 59% Calm Calm -- 29.82 in1009.8 mb 0.00 in0.0 mm 0.00 in0.0 mm 0.00 in0.0 mm
05:19 PM 43.9°F6.6°C 30.7°F-0.7°C 60% 1.0 mph ESE1.6 kmh ESE -- 29.82 in1009.8 mb 0.00 in0.0 mm 0.00 in0.0 mm 0.00 in0.0 mm
05:24 PM 43.7°F6.5°C 31.0°F-0.6°C 61% Calm Calm -- 29.81 in1009.5 mb 0.00 in0.0 mm 0.00 in0.0 mm 0.00 in0.0 mm
05:29 PM 43.7°F6.5°C 30.6°F-0.8°C 60% Calm Calm -- 29.82 in1009.8 mb 0.00 in0.0 mm 0.00 in0.0 mm 0.00 in0.0 mm
05:34 PM 43.5°F6.4°C 30.8°F-0.7°C 61% 2.0 mph NNE3.2 kmh NNE -- 29.81 in1009.5 mb 0.00 in0.0 mm 0.00 in0.0 mm 0.00 in0.0 mm
05:39 PM 43.2°F6.2°C 30.9°F-0.6°C 62% 1.0 mph SE1.6 kmh SE -- 29.81 in1009.5 mb 0.00 in0.0 mm 0.00 in0.0 mm 0.00 in0.0 mm
05:44 PM 42.7°F5.9°C 30.4°F-0.9°C 62% Calm Calm -- 29.81 in1009.5 mb 0.00 in0.0 mm 0.00 in0.0 mm 0.00 in0.0 mm
05:49 PM 42.6°F5.9°C 30.4°F-0.9°C 62% Calm Calm -- 29.81 in1009.5 mb 0.00 in0.0 mm 0.00 in0.0 mm 0.00 in0.0 mm
05:54 PM 42.2°F5.7°C 30.0°F-1.1°C 62% Calm Calm -- 29.81 in1009.5 mb 0.00 in0.0 mm 0.00 in0.0 mm 0.00 in0.0 mm
05:59 PM 41.9°F5.5°C 30.1°F-1.1°C 63% Calm Calm -- 29.81 in1009.5 mb 0.00 in0.0 mm 0.00 in0.0 mm 0.00 in0.0 mm
06:04 PM 41.8°F5.4°C 30.3°F-0.9°C 64% Calm Calm -- 29.81 in1009.5 mb 0.00 in0.0 mm 0.00 in0.0 mm 0.00 in0.0 mm
06:09 PM 41.5°F5.3°C 30.1°F-1.1°C 64% 1.0 mph E1.6 kmh E -- 29.81 in1009.5 mb 0.00 in0.0 mm 0.00 in0.0 mm 0.00 in0.0 mm
06:14 PM 41.2°F5.1°C 29.8°F-1.2°C 64% 2.0 mph NNE3.2 kmh NNE -- 29.81 in1009.5 mb 0.00 in0.0 mm 0.00 in0.0 mm 0.00 in0.0 mm
06:19 PM 41.1°F5.1°C 30.2°F-1.0°C 65% 1.0 mph SE1.6 kmh SE -- 29.81 in1009.5 mb 0.00 in0.0 mm 0.00 in0.0 mm 0.00 in0.0 mm
06:24 PM 41.0°F5.0°C 30.4°F-0.9°C 66% 1.0 mph N1.6 kmh N -- 29.81 in1009.5 mb 0.00 in0.0 mm 0.00 in0.0 mm 0.00 in0.0 mm
06:29 PM 41.2°F5.1°C 30.9°F-0.6°C 67% 1.0 mph NNW1.6 kmh NNW -- 29.81 in1009.5 mb 0.00 in0.0 mm 0.00 in0.0 mm 0.00 in0.0 mm
06:34 PM 41.3°F5.2°C 31.5°F-0.3°C 68% 2.0 mph E3.2 kmh E -- 29.81 in1009.5 mb 0.00 in0.0 mm 0.00 in0.0 mm 0.00 in0.0 mm
06:39 PM 41.0°F5.0°C 30.8°F-0.7°C 67% Calm Calm -- 29.81 in1009.5 mb 0.00 in0.0 mm 0.00 in0.0 mm 0.00 in0.0 mm
06:44 PM 40.7°F4.8°C 30.4°F-0.9°C 67% Calm Calm -- 29.81 in1009.5 mb 0.00 in0.0 mm 0.00 in0.0 mm 0.00 in0.0 mm
06:49 PM 40.7°F4.8°C 30.8°F-0.7°C 68% Calm Calm -- 29.81 in1009.5 mb 0.00 in0.0 mm 0.00 in0.0 mm 0.00 in0.0 mm
06:54 PM 40.5°F4.7°C 30.6°F-0.8°C 68% Calm Calm -- 29.81 in1009.5 mb 0.00 in0.0 mm 0.00 in0.0 mm 0.00 in0.0 mm
06:59 PM 40.4°F4.7°C 31.0°F-0.6°C 69% Calm Calm -- 29.81 in1009.5 mb 0.00 in0.0 mm 0.00 in0.0 mm 0.00 in0.0 mm
07:04 PM 40.3°F4.6°C 31.2°F-0.4°C 70% Calm Calm -- 29.81 in1009.5 mb 0.00 in0.0 mm 0.00 in0.0 mm 0.00 in0.0 mm
07:09 PM 40.1°F4.5°C 31.0°F-0.6°C 70% Calm Calm -- 29.81 in1009.5 mb 0.00 in0.0 mm 0.00 in0.0 mm 0.00 in0.0 mm
07:14 PM 40.1°F4.5°C 31.0°F-0.6°C 70% Calm Calm -- 29.81 in1009.5 mb 0.00 in0.0 mm 0.00 in0.0 mm 0.00 in0.0 mm
07:19 PM 40.1°F4.5°C 31.0°F-0.6°C 70% Calm Calm -- 29.81 in1009.5 mb 0.00 in0.0 mm 0.00 in0.0 mm 0.00 in0.0 mm
07:24 PM 40.0°F4.4°C 30.8°F-0.7°C 70% 1.0 mph SE1.6 kmh SE -- 29.81 in1009.5 mb 0.00 in0.0 mm 0.00 in0.0 mm 0.00 in0.0 mm
07:29 PM 40.1°F4.5°C 31.3°F-0.4°C 71% 2.0 mph NNW3.2 kmh NNW -- 29.81 in1009.5 mb 0.00 in0.0 mm 0.00 in0.0 mm 0.00 in0.0 mm
07:34 PM 39.9°F4.4°C 31.2°F-0.4°C 71% Calm Calm -- 29.81 in1009.5 mb 0.00 in0.0 mm 0.00 in0.0 mm 0.00 in0.0 mm
07:39 PM 39.8°F4.3°C 31.0°F-0.6°C 71% 2.0 mph N3.2 kmh N -- 29.81 in1009.5 mb 0.00 in0.0 mm 0.00 in0.0 mm 0.00 in0.0 mm
07:44 PM 39.7°F4.3°C 31.0°F-0.6°C 71% Calm Calm -- 29.81 in1009.5 mb 0.00 in0.0 mm 0.00 in0.0 mm 0.00 in0.0 mm
07:49 PM 39.7°F4.3°C 31.3°F-0.4°C 72% Calm Calm -- 29.81 in1009.5 mb 0.00 in0.0 mm 0.00 in0.0 mm 0.00 in0.0 mm
07:54 PM 40.0°F4.4°C 31.2°F-0.4°C 71% Calm Calm -- 29.82 in1009.8 mb 0.00 in0.0 mm 0.00 in0.0 mm 0.00 in0.0 mm
07:59 PM 40.2°F4.6°C 31.2°F-0.4°C 70% 1.0 mph E1.6 kmh E -- 29.81 in1009.5 mb 0.00 in0.0 mm 0.00 in0.0 mm 0.00 in0.0 mm
08:04 PM 40.3°F4.6°C 31.2°F-0.4°C 70% 1.0 mph ESE1.6 kmh ESE -- 29.81 in1009.5 mb 0.00 in0.0 mm 0.00 in0.0 mm 0.00 in0.0 mm
08:09 PM 40.4°F4.7°C 31.0°F-0.6°C 69% 1.0 mph SW1.6 kmh SW -- 29.81 in1009.5 mb 0.00 in0.0 mm 0.00 in0.0 mm 0.00 in0.0 mm
08:14 PM 40.5°F4.7°C 31.0°F-0.6°C 69% Calm Calm -- 29.81 in1009.5 mb 0.00 in0.0 mm 0.00 in0.0 mm 0.00 in0.0 mm
08:19 PM 40.6°F4.8°C 31.2°F-0.4°C 69% 2.0 mph W3.2 kmh W -- 29.81 in1009.5 mb 0.00 in0.0 mm 0.00 in0.0 mm 0.00 in0.0 mm
08:24 PM 40.6°F4.8°C 31.2°F-0.4°C 69% 1.0 mph S1.6 kmh S -- 29.81 in1009.5 mb 0.00 in0.0 mm 0.00 in0.0 mm 0.00 in0.0 mm
08:29 PM 40.6°F4.8°C 31.2°F-0.4°C 69% Calm Calm -- 29.81 in1009.5 mb 0.00 in0.0 mm 0.00 in0.0 mm 0.00 in0.0 mm
08:34 PM 40.7°F4.8°C 31.2°F-0.4°C 69% Calm Calm -- 29.81 in1009.5 mb 0.00 in0.0 mm 0.00 in0.0 mm 0.00 in0.0 mm
08:39 PM 40.5°F4.7°C 31.0°F-0.6°C 69% 2.0 mph SSW3.2 kmh SSW -- 29.81 in1009.5 mb 0.00 in0.0 mm 0.00 in0.0 mm 0.00 in0.0 mm
08:44 PM 40.6°F4.8°C 31.5°F-0.3°C 70% 2.0 mph WSW3.2 kmh WSW -- 29.81 in1009.5 mb 0.00 in0.0 mm 0.00 in0.0 mm 0.00 in0.0 mm
08:49 PM 40.5°F4.7°C 31.0°F-0.6°C 69% 2.0 mph NW3.2 kmh NW -- 29.81 in1009.5 mb 0.00 in0.0 mm 0.00 in0.0 mm 0.00 in0.0 mm
08:54 PM 40.5°F4.7°C 31.0°F-0.6°C 69% Calm Calm -- 29.80 in1009.1 mb 0.00 in0.0 mm 0.00 in0.0 mm 0.00 in0.0 mm
08:59 PM 40.4°F4.7°C 31.0°F-0.6°C 69% 1.0 mph S1.6 kmh S -- 29.80 in1009.1 mb 0.00 in0.0 mm 0.00 in0.0 mm 0.00 in0.0 mm
09:04 PM 40.5°F4.7°C 31.0°F-0.6°C 69% 2.0 mph W3.2 kmh W -- 29.80 in1009.1 mb 0.00 in0.0 mm 0.00 in0.0 mm 0.00 in0.0 mm
09:09 PM 40.6°F4.8°C 31.5°F-0.3°C 70% 1.0 mph S1.6 kmh S -- 29.80 in1009.1 mb 0.00 in0.0 mm 0.00 in0.0 mm 0.00 in0.0 mm
09:14 PM 40.5°F4.7°C 31.0°F-0.6°C 69% 1.0 mph SW1.6 kmh SW -- 29.80 in1009.1 mb 0.00 in0.0 mm 0.00 in0.0 mm 0.00 in0.0 mm
09:19 PM 40.4°F4.7°C 31.3°F-0.4°C 70% Calm Calm -- 29.80 in1009.1 mb 0.00 in0.0 mm 0.00 in0.0 mm 0.00 in0.0 mm
09:24 PM 40.4°F4.7°C 31.3°F-0.4°C 70% 1.0 mph SW1.6 kmh SW -- 29.80 in1009.1 mb 0.00 in0.0 mm 0.00 in0.0 mm 0.00 in0.0 mm
09:29 PM 40.5°F4.7°C 31.0°F-0.6°C 69% 1.0 mph E1.6 kmh E -- 29.81 in1009.5 mb 0.00 in0.0 mm 0.00 in0.0 mm 0.00 in0.0 mm
09:34 PM 40.6°F4.8°C 31.5°F-0.3°C 70% 1.0 mph E1.6 kmh E -- 29.80 in1009.1 mb 0.00 in0.0 mm 0.00 in0.0 mm 0.00 in0.0 mm
09:39 PM 40.6°F4.8°C 31.5°F-0.3°C 70% Calm Calm -- 29.80 in1009.1 mb 0.00 in0.0 mm 0.00 in0.0 mm 0.00 in0.0 mm
09:44 PM 40.5°F4.7°C 31.3°F-0.4°C 70% 2.0 mph SE3.2 kmh SE -- 29.80 in1009.1 mb 0.00 in0.0 mm 0.00 in0.0 mm 0.00 in0.0 mm
09:49 PM 40.5°F4.7°C 31.3°F-0.4°C 70% 1.0 mph S1.6 kmh S -- 29.79 in1008.8 mb 0.00 in0.0 mm 0.00 in0.0 mm 0.00 in0.0 mm
09:54 PM 40.5°F4.7°C 31.3°F-0.4°C 70% 1.0 mph SSE1.6 kmh SSE -- 29.79 in1008.8 mb 0.00 in0.0 mm 0.00 in0.0 mm 0.00 in0.0 mm
09:59 PM 40.5°F4.7°C 31.0°F-0.6°C 69% Calm Calm -- 29.79 in1008.8 mb 0.00 in0.0 mm 0.00 in0.0 mm 0.00 in0.0 mm
10:04 PM 40.4°F4.7°C 31.3°F-0.4°C 70% 1.0 mph SW1.6 kmh SW -- 29.79 in1008.8 mb 0.00 in0.0 mm 0.00 in0.0 mm 0.00 in0.0 mm
10:09 PM 40.4°F4.7°C 31.3°F-0.4°C 70% 1.0 mph S1.6 kmh S -- 29.79 in1008.8 mb 0.00 in0.0 mm 0.00 in0.0 mm 0.00 in0.0 mm
10:14 PM 40.3°F4.6°C 31.2°F-0.4°C 70% Calm Calm -- 29.78 in1008.5 mb 0.00 in0.0 mm 0.00 in0.0 mm 0.00 in0.0 mm
10:19 PM 40.3°F4.6°C 31.2°F-0.4°C 70% 1.0 mph SW1.6 kmh SW -- 29.78 in1008.5 mb 0.00 in0.0 mm 0.00 in0.0 mm 0.00 in0.0 mm
10:24 PM 40.2°F4.6°C 31.5°F-0.3°C 71% Calm Calm -- 29.79 in1008.8 mb 0.00 in0.0 mm 0.00 in0.0 mm 0.00 in0.0 mm
10:29 PM 40.0°F4.4°C 31.2°F-0.4°C 71% 1.0 mph S1.6 kmh S -- 29.79 in1008.8 mb 0.00 in0.0 mm 0.00 in0.0 mm 0.00 in0.0 mm
10:34 PM 40.0°F4.4°C 31.2°F-0.4°C 71% 1.0 mph WSW1.6 kmh WSW -- 29.79 in1008.8 mb 0.00 in0.0 mm 0.00 in0.0 mm 0.00 in0.0 mm
10:39 PM 39.9°F4.4°C 31.2°F-0.4°C 71% Calm Calm -- 29.79 in1008.8 mb 0.00 in0.0 mm 0.00 in0.0 mm 0.00 in0.0 mm
10:44 PM 40.0°F4.4°C 31.2°F-0.4°C 71% 1.0 mph S1.6 kmh S -- 29.79 in1008.8 mb 0.00 in0.0 mm 0.00 in0.0 mm 0.00 in0.0 mm
10:49 PM 39.8°F4.3°C 31.0°F-0.6°C 71% 2.0 mph SW3.2 kmh SW -- 29.79 in1008.8 mb 0.00 in0.0 mm 0.00 in0.0 mm 0.00 in0.0 mm
10:54 PM 39.8°F4.3°C 31.0°F-0.6°C 71% Calm Calm -- 29.79 in1008.8 mb 0.00 in0.0 mm 0.00 in0.0 mm 0.00 in0.0 mm
10:59 PM 39.8°F4.3°C 31.0°F-0.6°C 71% Calm Calm -- 29.78 in1008.5 mb 0.00 in0.0 mm 0.00 in0.0 mm 0.00 in0.0 mm
11:04 PM 39.8°F4.3°C 31.3°F-0.4°C 72% Calm Calm -- 29.78 in1008.5 mb 0.00 in0.0 mm 0.00 in0.0 mm 0.00 in0.0 mm
11:09 PM 39.7°F4.3°C 31.3°F-0.4°C 72% 1.0 mph SSW1.6 kmh SSW -- 29.78 in1008.5 mb 0.00 in0.0 mm 0.00 in0.0 mm 0.00 in0.0 mm
11:14 PM 39.7°F4.3°C 31.3°F-0.4°C 72% 1.0 mph E1.6 kmh E -- 29.78 in1008.5 mb 0.00 in0.0 mm 0.00 in0.0 mm 0.00 in0.0 mm
11:19 PM 39.8°F4.3°C 31.3°F-0.4°C 72% Calm Calm -- 29.78 in1008.5 mb 0.00 in0.0 mm 0.00 in0.0 mm 0.00 in0.0 mm
11:24 PM 39.8°F4.3°C 31.3°F-0.4°C 72% 3.0 mph WSW4.8 kmh WSW -- 29.78 in1008.5 mb 0.00 in0.0 mm 0.00 in0.0 mm 0.00 in0.0 mm
11:29 PM 39.9°F4.4°C 31.5°F-0.3°C 72% 2.0 mph NW3.2 kmh NW -- 29.78 in1008.5 mb 0.00 in0.0 mm 0.00 in0.0 mm 0.00 in0.0 mm
11:34 PM 40.0°F4.4°C 31.5°F-0.3°C 72% 2.0 mph WNW3.2 kmh WNW -- 29.78 in1008.5 mb 0.00 in0.0 mm 0.00 in0.0 mm 0.00 in0.0 mm
11:39 PM 40.0°F4.4°C 31.9°F-0.1°C 73% Calm Calm -- 29.78 in1008.5 mb 0.00 in0.0 mm 0.00 in0.0 mm 0.00 in0.0 mm
11:44 PM 40.0°F4.4°C 31.5°F-0.3°C 72% 2.0 mph WSW3.2 kmh WSW -- 29.78 in1008.5 mb 0.00 in0.0 mm 0.00 in0.0 mm 0.00 in0.0 mm
11:49 PM 40.0°F4.4°C 31.5°F-0.3°C 72% 2.0 mph SE3.2 kmh SE -- 29.77 in1008.1 mb 0.00 in0.0 mm 0.00 in0.0 mm 0.00 in0.0 mm
11:54 PM 39.9°F4.4°C 31.5°F-0.3°C 72% Calm Calm -- 29.77 in1008.1 mb 0.00 in0.0 mm 0.00 in0.0 mm 0.00 in0.0 mm
11:59 PM 40.0°F4.4°C 31.9°F-0.1°C 73% 3.0 mph N4.8 kmh N -- 29.77 in1008.1 mb 0.00 in0.0 mm 0.00 in0.0 mm 0.00 in0.0 mm